createdAt,value
2023-03-26T00:01:46.944Z,96701.09
2023-03-26T00:04:13.381Z,96704.41
2023-03-26T00:06:40.041Z,96712.41
2023-03-26T00:09:06.530Z,96717.34
2023-03-26T00:11:33.145Z,96694.09
2023-03-26T00:13:59.509Z,96683.88
2023-03-26T00:16:25.969Z,96683.50
2023-03-26T00:18:52.425Z,96680.03
2023-03-26T00:21:18.850Z,96700.72
2023-03-26T00:23:45.261Z,96707.09
2023-03-26T00:26:11.637Z,96703.44
2023-03-26T00:28:38.048Z,96702.69
2023-03-26T00:31:04.494Z,96698.31
2023-03-26T00:33:31.008Z,96699.38
2023-03-26T00:35:57.586Z,96685.47
2023-03-26T00:38:24.031Z,96668.25
2023-03-26T00:40:50.441Z,96670.00
2023-03-26T00:43:16.815Z,96657.69
2023-03-26T00:45:43.214Z,96654.53
2023-03-26T00:48:09.761Z,96669.19
2023-03-26T00:50:36.151Z,96677.66
2023-03-26T00:53:02.512Z,96668.19
2023-03-26T00:55:28.970Z,96669.00
2023-03-26T00:57:55.385Z,96662.72
2023-03-26T01:00:21.785Z,96662.91
2023-03-26T01:02:48.482Z,96652.00
2023-03-26T01:05:14.918Z,96641.91
2023-03-26T01:07:41.461Z,96647.09
2023-03-26T01:10:07.825Z,96653.97
2023-03-26T01:12:34.223Z,96645.25
2023-03-26T01:15:00.620Z,96644.97
2023-03-26T01:17:27.016Z,96633.69
2023-03-26T01:19:53.416Z,96641.09
2023-03-26T01:22:19.963Z,96631.16
2023-03-26T01:24:46.344Z,96619.59
2023-03-26T01:27:12.725Z,96619.88
2023-03-26T01:29:39.117Z,96614.47
2023-03-26T01:32:05.545Z,96615.09
2023-03-26T01:34:31.905Z,96608.53
2023-03-26T01:36:58.289Z,96605.63
2023-03-26T01:39:24.660Z,96603.41
2023-03-26T01:41:51.099Z,96599.97
2023-03-26T01:44:17.497Z,96600.47
2023-03-26T01:46:43.992Z,96595.75
2023-03-26T01:49:10.368Z,96590.50
2023-03-26T01:51:36.753Z,96594.78
2023-03-26T01:54:03.132Z,96595.69
2023-03-26T01:56:29.546Z,96600.03
2023-03-26T01:58:55.943Z,96593.09
2023-03-26T02:01:22.372Z,96586.69
2023-03-26T02:03:48.834Z,96580.00
2023-03-26T02:06:15.273Z,96575.69
2023-03-26T02:08:41.718Z,96566.00
2023-03-26T02:11:08.117Z,96573.81
2023-03-26T02:13:34.580Z,96570.16
2023-03-26T02:16:01.018Z,96573.53
2023-03-26T02:18:27.396Z,96565.69
2023-03-26T02:20:53.811Z,96553.63
2023-03-26T02:23:20.178Z,96548.94
2023-03-26T02:25:46.566Z,96550.50
2023-03-26T02:28:12.948Z,96553.13
2023-03-26T02:30:39.310Z,96545.25
2023-03-26T02:33:05.797Z,96539.53
2023-03-26T02:35:32.330Z,96545.63
2023-03-26T02:37:58.767Z,96548.09
2023-03-26T02:40:25.165Z,96527.78
2023-03-26T02:42:51.605Z,96534.88
2023-03-26T02:45:18.017Z,96516.16
2023-03-26T02:47:44.494Z,96509.75
2023-03-26T02:50:10.849Z,96511.25
2023-03-26T02:52:37.346Z,96496.00
2023-03-26T02:55:03.738Z,96487.63
2023-03-26T02:57:30.098Z,96481.00
2023-03-26T02:59:56.509Z,96473.00
2023-03-26T03:02:23.072Z,96455.44
2023-03-26T03:04:49.545Z,96436.75
2023-03-26T03:07:15.938Z,96426.75
2023-03-26T03:09:42.309Z,96409.41
2023-03-26T03:12:08.680Z,96415.31
2023-03-26T03:14:35.064Z,96412.97
2023-03-26T03:17:01.529Z,96413.31
2023-03-26T03:19:27.938Z,96413.19
2023-03-26T03:21:54.304Z,96399.41
2023-03-26T03:24:20.697Z,96389.28
2023-03-26T03:26:47.154Z,96389.72
2023-03-26T03:29:13.554Z,96401.78
2023-03-26T03:31:39.944Z,96394.69
2023-03-26T03:34:06.346Z,96405.13
2023-03-26T03:36:32.707Z,96388.09
2023-03-26T03:38:59.104Z,96391.31
2023-03-26T03:41:25.515Z,96398.91
2023-03-26T03:43:51.903Z,96390.03
2023-03-26T03:46:18.316Z,96380.84
2023-03-26T03:48:44.706Z,96381.56
2023-03-26T03:51:11.492Z,96373.53
2023-03-26T03:53:37.889Z,96368.94
2023-03-26T03:56:04.361Z,96387.13
2023-03-26T03:58:30.767Z,96372.59
2023-03-26T04:00:57.147Z,96364.53
2023-03-26T04:03:33.388Z,96358.47
2023-03-26T04:06:00.878Z,96364.06
2023-03-26T04:08:27.257Z,96355.19
2023-03-26T04:10:53.640Z,96356.47
2023-03-26T04:13:20.080Z,96351.88
2023-03-26T04:15:46.639Z,96354.88
2023-03-26T04:18:13.006Z,96356.81
2023-03-26T04:20:39.350Z,96369.94
2023-03-26T04:23:05.713Z,96364.13
2023-03-26T04:25:32.116Z,96353.25
2023-03-26T04:27:58.601Z,96356.28
2023-03-26T04:30:25.166Z,96369.34
2023-03-26T04:32:51.685Z,96362.81
2023-03-26T04:35:18.066Z,96361.16
2023-03-26T04:37:44.461Z,96366.03
2023-03-26T04:40:10.835Z,96355.00
2023-03-26T04:42:37.209Z,96355.41
2023-03-26T04:45:03.587Z,96352.19
2023-03-26T04:47:30.109Z,96348.66
2023-03-26T04:49:56.478Z,96333.63
2023-03-26T04:52:22.860Z,96324.56
2023-03-26T04:54:49.274Z,96315.59
2023-03-26T04:57:15.712Z,96290.78
2023-03-26T04:59:42.149Z,96284.56
2023-03-26T05:02:08.553Z,96285.22
2023-03-26T05:04:34.998Z,96283.75
2023-03-26T05:07:01.392Z,96283.78
2023-03-26T05:09:27.751Z,96266.16
2023-03-26T05:11:54.124Z,96271.03
2023-03-26T05:14:20.540Z,96265.69
2023-03-26T05:16:46.960Z,96271.78
2023-03-26T05:19:13.350Z,96269.41
2023-03-26T05:21:39.694Z,96274.03
2023-03-26T05:24:06.117Z,96259.84
2023-03-26T05:26:32.508Z,96241.28
2023-03-26T05:28:58.876Z,96249.56
2023-03-26T05:31:25.237Z,96247.94
2023-03-26T05:33:51.605Z,96255.19
2023-03-26T05:36:17.982Z,96260.66
2023-03-26T05:38:44.346Z,96264.59
2023-03-26T05:41:10.702Z,96255.31
2023-03-26T05:43:37.093Z,96261.88
2023-03-26T05:46:03.476Z,96264.81
2023-03-26T05:48:29.976Z,96267.63
2023-03-26T05:50:56.585Z,96272.81
2023-03-26T05:53:23.336Z,96292.72
2023-03-26T05:55:49.779Z,96293.72
2023-03-26T05:58:16.201Z,96301.31
2023-03-26T06:00:42.684Z,96309.34
2023-03-26T06:03:09.201Z,96300.25
2023-03-26T06:05:35.630Z,96287.03
2023-03-26T06:08:01.986Z,96290.88
2023-03-26T06:10:28.376Z,96298.22
2023-03-26T06:12:54.803Z,96315.88
2023-03-26T06:15:21.191Z,96305.25
2023-03-26T06:17:47.624Z,96319.31
2023-03-26T06:20:14.105Z,96320.19
2023-03-26T06:22:40.521Z,96301.38
2023-03-26T06:25:06.957Z,96308.69
2023-03-26T06:27:33.358Z,96287.19
2023-03-26T06:29:59.737Z,96270.78
2023-03-26T06:32:26.149Z,96279.34
2023-03-26T06:34:52.651Z,96270.09
2023-03-26T06:37:19.035Z,96278.81
2023-03-26T06:39:45.421Z,96286.50
2023-03-26T06:42:11.804Z,96284.69
2023-03-26T06:44:38.197Z,96287.81
2023-03-26T06:47:04.704Z,96291.34
2023-03-26T06:49:31.107Z,96299.44
2023-03-26T06:52:02.034Z,96301.19
2023-03-26T06:54:31.161Z,96299.13
2023-03-26T06:56:57.557Z,96281.19
2023-03-26T06:59:26.954Z,96286.69
2023-03-26T07:01:53.630Z,96292.97
2023-03-26T07:04:20.100Z,96290.22
2023-03-26T07:06:46.490Z,96283.72
2023-03-26T07:09:12.898Z,96280.38
2023-03-26T07:11:40.719Z,96283.56
2023-03-26T07:14:07.117Z,96293.59
2023-03-26T07:16:36.284Z,96281.28
2023-03-26T07:19:02.887Z,96290.47
2023-03-26T07:21:29.334Z,96280.38
2023-03-26T07:23:56.720Z,96280.09
2023-03-26T07:26:23.094Z,96275.97
2023-03-26T07:29:04.660Z,96277.78
2023-03-26T07:31:31.815Z,96280.41
2023-03-26T07:33:58.283Z,96291.78
2023-03-26T07:36:24.664Z,96300.28
2023-03-26T07:38:51.056Z,96288.94
2023-03-26T07:41:17.423Z,96285.31
2023-03-26T07:43:43.829Z,96275.16
2023-03-26T07:46:10.274Z,96260.47
2023-03-26T07:48:36.863Z,96246.59
2023-03-26T07:51:03.241Z,96249.97
2023-03-26T07:53:29.626Z,96238.22
2023-03-26T07:55:56.011Z,96246.75
2023-03-26T07:58:22.420Z,96263.03
2023-03-26T08:00:48.941Z,96261.09
2023-03-26T08:03:15.725Z,96267.47
2023-03-26T08:05:42.449Z,96275.06
2023-03-26T08:08:08.815Z,96264.25
2023-03-26T08:10:35.241Z,96242.78
2023-03-26T08:13:01.686Z,96243.53
2023-03-26T08:15:28.198Z,96250.25
2023-03-26T08:17:54.616Z,96257.38
2023-03-26T08:20:21.031Z,96252.06
2023-03-26T08:22:47.401Z,96250.91
2023-03-26T08:25:13.774Z,96243.19
2023-03-26T08:27:40.182Z,96240.81
2023-03-26T08:30:06.657Z,96226.94
2023-03-26T08:32:33.084Z,96236.88
2023-03-26T08:34:59.749Z,96234.91
2023-03-26T08:37:26.229Z,96236.53
2023-03-26T08:39:52.626Z,96242.75
2023-03-26T08:42:19.154Z,96251.69
2023-03-26T08:44:45.518Z,96259.28
2023-03-26T08:47:11.936Z,96258.50
2023-03-26T08:49:38.345Z,96256.22
2023-03-26T08:52:04.715Z,96251.13
2023-03-26T08:54:31.098Z,96263.50
2023-03-26T08:56:57.506Z,96265.66
2023-03-26T08:59:23.873Z,96269.09
2023-03-26T09:01:50.343Z,96270.59
2023-03-26T09:04:16.803Z,96273.91
2023-03-26T09:06:43.227Z,96271.97
2023-03-26T09:09:09.869Z,96258.59
2023-03-26T09:11:45.780Z,96253.19
2023-03-26T09:14:12.152Z,96246.38
2023-03-26T09:16:38.766Z,96234.41
2023-03-26T09:19:05.329Z,96230.69
2023-03-26T09:21:31.864Z,96231.75
2023-03-26T09:23:58.233Z,96228.50
2023-03-26T09:26:24.691Z,96234.03
2023-03-26T09:28:51.071Z,96238.78
2023-03-26T09:31:17.489Z,96250.13
2023-03-26T09:33:43.919Z,96244.94
2023-03-26T09:36:10.425Z,96227.25
2023-03-26T09:38:36.862Z,96213.34
2023-03-26T09:41:03.266Z,96220.16
2023-03-26T09:43:29.632Z,96216.50
2023-03-26T09:45:56.050Z,96205.44
2023-03-26T09:48:22.470Z,96203.88
2023-03-26T09:50:48.955Z,96213.56
2023-03-26T09:53:15.338Z,96203.53
2023-03-26T09:55:41.741Z,96213.63
2023-03-26T09:58:08.178Z,96211.78
2023-03-26T10:00:34.623Z,96211.03
2023-03-26T10:03:01.051Z,96226.81
2023-03-26T10:05:27.531Z,96220.94
2023-03-26T10:07:53.891Z,96221.59
2023-03-26T10:10:20.261Z,96225.22
2023-03-26T10:12:46.769Z,96221.56
2023-03-26T10:15:13.181Z,96220.84
2023-03-26T10:17:39.622Z,96215.31
2023-03-26T10:20:06.020Z,96217.72
2023-03-26T10:22:32.388Z,96205.97
2023-03-26T10:24:58.828Z,96210.56
2023-03-26T10:27:25.235Z,96214.09
2023-03-26T10:29:51.626Z,96214.56
2023-03-26T10:32:18.015Z,96205.22
2023-03-26T10:34:44.391Z,96222.38
2023-03-26T10:37:10.821Z,96217.00
2023-03-26T10:39:39.002Z,96223.94
2023-03-26T10:42:06.206Z,96215.09
2023-03-26T10:44:32.783Z,96220.13
2023-03-26T10:46:59.361Z,96219.78
2023-03-26T10:49:25.824Z,96210.97
2023-03-26T10:51:52.214Z,96211.88
2023-03-26T10:54:18.602Z,96221.00
2023-03-26T10:56:45.163Z,96206.94
2023-03-26T10:59:11.558Z,96203.38
2023-03-26T11:01:38.116Z,96192.81
2023-03-26T11:04:04.521Z,96195.31
2023-03-26T11:06:30.973Z,96194.38
2023-03-26T11:08:57.403Z,96193.63
2023-03-26T11:11:23.907Z,96181.22
2023-03-26T11:13:50.276Z,96174.97
2023-03-26T11:16:16.753Z,96182.75
2023-03-26T11:18:43.240Z,96187.25
2023-03-26T11:21:18.528Z,96164.22
2023-03-26T11:23:46.885Z,96175.06
2023-03-26T11:26:13.294Z,96178.81
2023-03-26T11:28:39.762Z,96163.63
2023-03-26T11:31:06.264Z,96168.00
2023-03-26T11:33:33.061Z,96153.69
2023-03-26T11:35:59.475Z,96148.00
2023-03-26T11:38:26.341Z,96151.50
2023-03-26T11:40:53.330Z,96134.41
2023-03-26T11:43:19.997Z,96135.44
2023-03-26T11:45:46.410Z,96126.63
2023-03-26T11:48:15.229Z,96126.19
2023-03-26T11:50:41.617Z,96125.25
2023-03-26T11:53:09.281Z,96113.03
2023-03-26T11:55:35.668Z,96101.75
2023-03-26T11:58:02.255Z,96095.06
2023-03-26T12:00:28.864Z,96093.22
2023-03-26T12:02:55.445Z,96084.66
2023-03-26T12:05:22.247Z,96090.84
2023-03-26T12:07:49.103Z,96097.47
2023-03-26T12:10:18.926Z,96087.59
2023-03-26T12:12:46.081Z,96099.09
2023-03-26T12:15:12.439Z,96076.09
2023-03-26T12:17:38.869Z,96075.50
2023-03-26T12:20:05.454Z,96074.94
2023-03-26T12:22:32.170Z,96074.28
2023-03-26T12:24:58.528Z,96060.09
2023-03-26T12:27:24.906Z,96067.34
2023-03-26T12:29:51.283Z,96074.28
2023-03-26T12:32:17.692Z,96083.09
2023-03-26T12:34:44.111Z,96089.84
2023-03-26T12:37:10.538Z,96101.47
2023-03-26T12:40:08.827Z,96139.41
2023-03-26T12:44:46.367Z,96183.31
2023-03-26T12:45:12.203Z,96182.81
2023-03-26T12:47:58.246Z,96204.72
2023-03-26T12:50:34.286Z,96216.56
2023-03-26T12:53:02.039Z,96228.75
2023-03-26T12:55:28.574Z,96226.69
2023-03-26T12:57:54.976Z,96233.75
2023-03-26T13:00:21.426Z,96207.69
2023-03-26T13:02:48.312Z,96190.72
2023-03-26T13:05:14.869Z,96188.72
2023-03-26T13:07:43.407Z,96188.59
2023-03-26T13:10:10.129Z,96184.34
2023-03-26T13:12:36.640Z,96170.03
2023-03-26T13:15:03.212Z,96159.06
2023-03-26T13:17:29.615Z,96158.38
2023-03-26T13:19:56.053Z,96144.78
2023-03-26T13:22:22.455Z,96130.06
2023-03-26T13:24:48.887Z,96128.56
2023-03-26T13:27:15.275Z,96139.50
2023-03-26T13:29:41.660Z,96143.97
2023-03-26T13:32:08.040Z,96129.53
2023-03-26T13:34:34.431Z,96138.53
2023-03-26T13:37:00.819Z,96120.91
2023-03-26T13:39:27.246Z,96128.13
2023-03-26T13:41:53.654Z,96143.09
2023-03-26T13:44:20.046Z,96136.31
2023-03-26T13:46:46.416Z,96139.84
2023-03-26T13:49:12.972Z,96142.75
2023-03-26T13:51:39.517Z,96145.19
2023-03-26T13:54:05.912Z,96164.19
2023-03-26T13:56:32.352Z,96160.50
2023-03-26T13:58:58.755Z,96163.88
2023-03-26T14:01:25.162Z,96158.31
2023-03-26T14:03:51.585Z,96171.63
2023-03-26T14:06:17.981Z,96177.91
2023-03-26T14:08:44.375Z,96177.72
2023-03-26T14:11:10.972Z,96175.69
2023-03-26T14:13:37.420Z,96187.66
2023-03-26T14:16:03.826Z,96189.72
2023-03-26T14:18:30.234Z,96193.53
2023-03-26T14:20:56.748Z,96192.25
2023-03-26T14:23:23.214Z,96202.97
2023-03-26T14:25:49.557Z,96200.53
2023-03-26T14:28:15.926Z,96206.91
2023-03-26T14:30:42.288Z,96206.69
2023-03-26T14:33:08.727Z,96209.63
2023-03-26T14:35:35.202Z,96215.41
2023-03-26T14:38:01.703Z,96204.75
2023-03-26T14:40:28.151Z,96211.22
2023-03-26T14:42:56.523Z,96199.25
2023-03-26T14:45:23.402Z,96200.31
2023-03-26T14:47:49.968Z,96208.84
2023-03-26T14:50:16.486Z,96210.91
2023-03-26T14:52:43.169Z,96212.84
2023-03-26T14:55:09.565Z,96216.84
2023-03-26T14:57:35.932Z,96210.56
2023-03-26T15:00:02.299Z,96210.81
2023-03-26T15:02:28.884Z,96214.22
2023-03-26T15:04:55.304Z,96215.53
2023-03-26T15:07:21.709Z,96214.66
2023-03-26T15:09:48.070Z,96207.50
2023-03-26T15:12:14.553Z,96202.16
2023-03-26T15:14:40.945Z,96212.41
2023-03-26T15:17:07.474Z,96192.88
2023-03-26T15:19:33.903Z,96197.22
2023-03-26T15:22:00.266Z,96182.53
2023-03-26T15:24:26.612Z,96178.50
2023-03-26T15:26:53.010Z,96171.84
2023-03-26T15:29:19.412Z,96164.16
2023-03-26T15:31:45.891Z,96167.59
2023-03-26T15:34:12.456Z,96170.72
2023-03-26T15:36:38.825Z,96167.50
2023-03-26T15:39:05.205Z,96175.44
2023-03-26T15:41:31.587Z,96169.78
2023-03-26T15:44:24.162Z,96179.97
2023-03-26T15:46:44.521Z,96185.00
2023-03-26T15:49:11.037Z,96176.69
2023-03-26T15:51:47.382Z,96163.25
2023-03-26T15:54:14.343Z,96163.47
2023-03-26T15:56:40.774Z,96153.13
2023-03-26T15:59:07.174Z,96147.53
2023-03-26T16:01:33.566Z,96138.66
2023-03-26T16:04:00.193Z,96143.31
2023-03-26T16:06:26.570Z,96130.13
2023-03-26T16:08:53.046Z,96121.16
2023-03-26T16:11:19.537Z,96132.75
2023-03-26T16:13:46.148Z,96127.25
2023-03-26T16:16:12.624Z,96117.47
2023-03-26T16:18:39.060Z,96108.78
2023-03-26T16:21:05.446Z,96109.41
2023-03-26T16:23:31.893Z,96110.63
2023-03-26T16:25:58.260Z,96100.44
2023-03-26T16:28:24.643Z,96105.75
2023-03-26T16:30:51.153Z,96090.09
2023-03-26T16:33:17.627Z,96097.13
2023-03-26T16:35:44.072Z,96089.75
2023-03-26T16:38:10.558Z,96093.59
2023-03-26T16:40:36.938Z,96086.66
2023-03-26T16:43:03.366Z,96091.75
2023-03-26T16:45:29.848Z,96086.38
2023-03-26T16:47:56.295Z,96065.84
2023-03-26T16:50:22.757Z,96060.09
2023-03-26T16:52:49.160Z,96069.78
2023-03-26T16:55:15.536Z,96065.09
2023-03-26T16:57:41.932Z,96064.78
2023-03-26T17:00:08.412Z,96054.91
2023-03-26T17:02:34.886Z,96055.97
2023-03-26T17:05:01.294Z,96054.47
2023-03-26T17:07:27.656Z,96047.03
2023-03-26T17:09:54.041Z,96043.63
2023-03-26T17:12:22.473Z,96040.38
2023-03-26T17:14:50.857Z,96048.13
2023-03-26T17:17:17.246Z,96059.56
2023-03-26T17:19:43.642Z,96069.84
2023-03-26T17:22:10.052Z,96058.09
2023-03-26T17:24:36.424Z,96066.94
2023-03-26T17:27:02.846Z,96049.84
2023-03-26T17:29:29.241Z,96051.97
2023-03-26T17:31:55.671Z,96042.00
2023-03-26T17:34:22.134Z,96037.81
2023-03-26T17:36:48.682Z,96036.06
2023-03-26T17:39:15.061Z,96033.41
2023-03-26T17:41:41.434Z,96030.00
2023-03-26T17:44:07.829Z,96039.00
2023-03-26T17:46:34.249Z,96034.00
2023-03-26T17:49:00.671Z,96034.44
2023-03-26T17:51:27.200Z,96028.69
2023-03-26T17:53:53.583Z,96025.25
2023-03-26T17:56:19.947Z,96023.66
2023-03-26T17:58:46.414Z,96028.22
2023-03-26T18:01:12.822Z,96018.53
2023-03-26T18:03:39.241Z,96017.19
2023-03-26T18:06:05.706Z,96016.56
2023-03-26T18:08:32.130Z,96012.81
2023-03-26T18:10:58.481Z,96010.41
2023-03-26T18:13:24.864Z,96006.94
2023-03-26T18:15:51.260Z,96013.19
2023-03-26T18:18:17.617Z,96013.19
2023-03-26T18:20:43.991Z,96014.31
2023-03-26T18:23:10.468Z,96007.78
2023-03-26T18:25:36.939Z,96007.13
2023-03-26T18:28:03.309Z,96009.84
2023-03-26T18:30:29.747Z,96009.03
2023-03-26T18:32:57.038Z,96015.25
2023-03-26T18:35:25.240Z,96007.34
2023-03-26T18:37:51.664Z,96010.75
2023-03-26T18:40:18.058Z,96014.53
2023-03-26T18:42:44.467Z,96009.38
2023-03-26T18:45:10.869Z,96014.63
2023-03-26T18:47:37.268Z,96010.59
2023-03-26T18:50:03.680Z,96005.91
2023-03-26T18:52:30.088Z,96003.91
2023-03-26T18:54:56.502Z,96002.59
2023-03-26T18:57:23.027Z,96006.81
2023-03-26T18:59:49.524Z,96002.94
2023-03-26T19:02:15.952Z,95998.88
2023-03-26T19:04:43.654Z,96007.31
2023-03-26T19:07:13.113Z,96003.63
2023-03-26T19:09:39.501Z,96000.19
2023-03-26T19:12:05.904Z,96001.13
2023-03-26T19:14:32.316Z,96003.34
2023-03-26T19:16:58.748Z,96003.06
2023-03-26T19:19:25.276Z,95999.56
2023-03-26T19:21:51.652Z,95999.06
2023-03-26T19:24:18.015Z,95993.13
2023-03-26T19:26:44.480Z,95997.66
2023-03-26T19:29:10.941Z,96002.69
2023-03-26T19:31:37.350Z,96001.88
2023-03-26T19:34:03.754Z,96001.59
2023-03-26T19:36:30.142Z,95997.09
2023-03-26T19:38:56.537Z,96002.41
2023-03-26T19:41:22.907Z,96001.66
2023-03-26T19:43:49.308Z,96009.84
2023-03-26T19:46:15.676Z,96001.81
2023-03-26T19:48:45.710Z,96008.25
2023-03-26T19:51:13.379Z,96011.66
2023-03-26T19:53:39.819Z,96004.47
2023-03-26T19:56:06.495Z,96011.94
2023-03-26T19:58:32.923Z,96005.00
2023-03-26T20:00:59.459Z,96007.09
2023-03-26T20:03:26.286Z,96007.56
2023-03-26T20:05:52.742Z,96007.34
2023-03-26T20:08:19.149Z,96012.59
2023-03-26T20:10:45.557Z,96007.28
2023-03-26T20:13:12.097Z,96005.94
2023-03-26T20:15:38.485Z,96022.81
2023-03-26T20:18:04.954Z,96008.38
2023-03-26T20:20:31.348Z,96014.59
2023-03-26T20:22:57.772Z,96018.81
2023-03-26T20:25:24.840Z,96025.72
2023-03-26T20:27:52.044Z,96018.94
2023-03-26T20:30:27.517Z,96028.63
2023-03-26T20:33:12.963Z,96031.19
2023-03-26T20:35:40.114Z,96028.03
2023-03-26T20:38:06.511Z,96034.53
2023-03-26T20:40:32.904Z,96038.59
2023-03-26T20:42:59.269Z,96030.06
2023-03-26T20:45:25.648Z,96037.72
2023-03-26T20:47:52.093Z,96027.88
2023-03-26T20:50:18.593Z,96042.41
2023-03-26T20:52:44.970Z,96048.94
2023-03-26T20:55:11.418Z,96038.75
2023-03-26T20:57:37.910Z,96049.19
2023-03-26T21:00:04.408Z,96048.88
2023-03-26T21:02:30.888Z,96053.13
2023-03-26T21:04:57.351Z,96060.28
2023-03-26T21:07:23.714Z,96073.00
2023-03-26T21:09:50.108Z,96082.53
2023-03-26T21:12:16.652Z,96087.94
2023-03-26T21:14:43.006Z,96083.06
2023-03-26T21:17:09.366Z,96092.59
2023-03-26T21:19:35.820Z,96097.00
2023-03-26T21:22:02.208Z,96105.06
2023-03-26T21:24:28.606Z,96118.69
2023-03-26T21:26:54.993Z,96126.31
2023-03-26T21:29:21.346Z,96138.22
2023-03-26T21:31:47.742Z,96144.22
2023-03-26T21:34:14.097Z,96151.31
2023-03-26T21:36:40.593Z,96162.06
2023-03-26T21:39:06.997Z,96169.06
2023-03-26T21:41:33.396Z,96164.44
2023-03-26T21:43:59.771Z,96172.34
2023-03-26T21:46:26.222Z,96171.88
2023-03-26T21:48:52.625Z,96176.63
2023-03-26T21:51:20.248Z,96174.69
2023-03-26T21:53:46.653Z,96182.53
2023-03-26T21:56:13.089Z,96178.91
2023-03-26T21:58:39.429Z,96175.19
2023-03-26T22:01:05.919Z,96177.53
2023-03-26T22:03:32.384Z,96179.75
2023-03-26T22:05:58.834Z,96189.91
2023-03-26T22:08:25.190Z,96200.41
2023-03-26T22:10:51.570Z,96200.16
2023-03-26T22:13:17.943Z,96202.75
2023-03-26T22:15:44.328Z,96209.22
2023-03-26T22:18:10.724Z,96214.00
2023-03-26T22:20:37.103Z,96215.59
2023-03-26T22:23:03.533Z,96212.84
2023-03-26T22:25:29.897Z,96220.66
2023-03-26T22:27:56.275Z,96223.81
2023-03-26T22:30:22.645Z,96229.78
2023-03-26T22:32:49.051Z,96225.03
2023-03-26T22:35:15.453Z,96226.44
2023-03-26T22:37:41.831Z,96226.28
2023-03-26T22:40:08.211Z,96237.84
2023-03-26T22:42:34.625Z,96236.38
2023-03-26T22:45:00.991Z,96236.47
2023-03-26T22:47:27.372Z,96244.34
2023-03-26T22:49:53.768Z,96248.06
2023-03-26T22:52:20.138Z,96242.69
2023-03-26T22:54:46.569Z,96258.41
2023-03-26T22:57:13.003Z,96265.25
2023-03-26T22:59:39.383Z,96270.97
2023-03-26T23:02:05.825Z,96270.53
2023-03-26T23:04:32.567Z,96283.59
2023-03-26T23:06:59.031Z,96280.69
2023-03-26T23:09:25.392Z,96291.31
2023-03-26T23:11:51.785Z,96282.53
2023-03-26T23:14:18.201Z,96280.94
2023-03-26T23:16:44.585Z,96284.94
2023-03-26T23:19:11.033Z,96293.47
2023-03-26T23:21:37.502Z,96297.44
2023-03-26T23:24:03.986Z,96298.91
2023-03-26T23:26:34.962Z,96301.00
2023-03-26T23:29:04.246Z,96311.16
2023-03-26T23:31:30.671Z,96316.09
2023-03-26T23:33:57.169Z,96334.78
2023-03-26T23:36:23.551Z,96337.34
2023-03-26T23:38:49.919Z,96347.25
2023-03-26T23:41:16.304Z,96347.72
2023-03-26T23:43:53.384Z,96356.88
2023-03-26T23:46:20.486Z,96366.50
2023-03-26T23:48:46.892Z,96371.69
2023-03-26T23:51:13.337Z,96380.00
2023-03-26T23:53:39.738Z,96385.53
2023-03-26T23:56:06.177Z,96386.41
2023-03-26T23:58:32.651Z,96388.94
